createdAt,value
2023-06-18T00:00:14.577Z,13.30
2023-06-18T00:03:21.607Z,15.00
2023-06-18T00:06:08.491Z,13.90
2023-06-18T00:08:55.118Z,12.70
2023-06-18T00:11:41.760Z,14.30
2023-06-18T00:14:28.289Z,12.10
2023-06-18T00:17:14.773Z,13.80
2023-06-18T00:20:01.174Z,12.70
2023-06-18T00:22:48.731Z,12.20
2023-06-18T00:25:37.177Z,11.10
2023-06-18T00:28:23.510Z,13.40
2023-06-18T00:31:12.317Z,11.70
2023-06-18T00:34:05.803Z,11.70
2023-06-18T00:36:55.027Z,13.80
2023-06-18T00:39:41.563Z,11.20
2023-06-18T00:42:29.119Z,11.60
2023-06-18T00:45:17.531Z,13.20
2023-06-18T00:48:04.545Z,13.10
2023-06-18T00:50:52.766Z,13.90
2023-06-18T00:53:41.312Z,12.30
2023-06-18T00:56:29.894Z,12.00
2023-06-18T00:59:22.807Z,12.90
2023-06-18T01:02:10.178Z,13.60
2023-06-18T01:05:00.369Z,13.70
2023-06-18T01:07:50.865Z,13.30
2023-06-18T01:10:41.970Z,12.00
2023-06-18T01:13:37.115Z,12.80
2023-06-18T01:16:25.004Z,12.50
2023-06-18T01:19:36.108Z,12.50
2023-06-18T01:22:45.780Z,12.00
2023-06-18T01:25:33.050Z,13.10
2023-06-18T01:28:20.259Z,10.90
2023-06-18T01:31:08.318Z,13.60
2023-06-18T01:33:55.328Z,12.30
2023-06-18T01:37:15.829Z,11.20
2023-06-18T01:40:16.441Z,11.90
2023-06-18T01:43:12.228Z,11.90
2023-06-18T01:46:14.372Z,10.20
2023-06-18T01:49:05.343Z,10.80
2023-06-18T01:51:53.109Z,11.10
2023-06-18T01:54:41.339Z,9.50
2023-06-18T01:57:28.822Z,9.60
2023-06-18T02:00:15.585Z,9.40
2023-06-18T02:03:03.391Z,10.40
2023-06-18T02:05:50.890Z,10.40
2023-06-18T02:08:37.653Z,10.00
2023-06-18T02:11:24.108Z,9.80
2023-06-18T02:14:11.122Z,12.00
2023-06-18T02:16:57.791Z,9.20
2023-06-18T02:19:44.845Z,9.90
2023-06-18T02:22:32.399Z,10.60
2023-06-18T02:25:20.161Z,11.10
2023-06-18T02:28:07.224Z,11.70
2023-06-18T02:30:56.328Z,11.00
2023-06-18T02:33:42.997Z,10.10
2023-06-18T02:36:29.401Z,9.70
2023-06-18T02:39:17.266Z,12.00
2023-06-18T02:42:04.104Z,9.90
2023-06-18T02:44:50.827Z,10.50
2023-06-18T02:47:38.686Z,11.10
2023-06-18T02:50:25.685Z,11.10
2023-06-18T02:53:12.910Z,9.60
2023-06-18T02:55:59.555Z,10.30
2023-06-18T02:58:47.036Z,10.90
2023-06-18T03:01:34.899Z,10.90
2023-06-18T03:04:23.039Z,12.40
2023-06-18T03:07:09.878Z,10.20
2023-06-18T03:09:56.801Z,10.20
2023-06-18T03:12:43.566Z,10.30
2023-06-18T03:15:50.063Z,11.20
2023-06-18T03:18:38.009Z,10.60
2023-06-18T03:21:25.273Z,9.70
2023-06-18T03:24:15.262Z,10.80
2023-06-18T03:27:02.224Z,11.50
2023-06-18T03:29:49.052Z,10.70
2023-06-18T03:32:36.514Z,9.30
2023-06-18T03:35:23.452Z,11.10
2023-06-18T03:38:10.284Z,10.90
2023-06-18T03:40:56.726Z,9.60
2023-06-18T03:43:43.344Z,10.30
2023-06-18T03:46:32.657Z,10.10
2023-06-18T03:49:19.248Z,9.60
2023-06-18T03:52:05.896Z,10.90
2023-06-18T03:54:53.232Z,9.70
2023-06-18T03:57:40.343Z,10.70
2023-06-18T04:00:27.762Z,9.90
2023-06-18T04:03:17.711Z,9.90
2023-06-18T04:06:04.897Z,8.80
2023-06-18T04:08:51.453Z,11.50
2023-06-18T04:11:43.172Z,9.50
2023-06-18T04:14:29.626Z,10.40
2023-06-18T04:17:16.462Z,10.00
2023-06-18T04:20:03.924Z,9.20
2023-06-18T04:22:53.570Z,9.50
2023-06-18T04:25:41.043Z,9.30
2023-06-18T04:28:28.061Z,8.40
2023-06-18T04:31:14.315Z,8.60
2023-06-18T04:34:00.982Z,10.50
2023-06-18T04:36:47.319Z,9.70
2023-06-18T04:39:36.846Z,9.70
2023-06-18T04:42:23.428Z,9.60
2023-06-18T04:45:11.248Z,9.00
2023-06-18T04:47:57.859Z,8.30
2023-06-18T04:50:44.539Z,8.40
2023-06-18T04:53:31.122Z,9.00
2023-06-18T04:56:19.765Z,9.00
2023-06-18T04:59:07.214Z,9.80
2023-06-18T05:01:53.916Z,9.80
2023-06-18T05:04:42.328Z,7.90
2023-06-18T05:07:29.122Z,8.20
2023-06-18T05:10:18.504Z,8.40
2023-06-18T05:13:06.926Z,7.60
2023-06-18T05:15:53.739Z,8.10
2023-06-18T05:18:40.399Z,7.30
2023-06-18T05:21:27.895Z,6.90
2023-06-18T05:24:14.898Z,7.20
2023-06-18T05:27:01.667Z,7.20
2023-06-18T05:29:48.007Z,7.60
2023-06-18T05:32:34.851Z,7.70
2023-06-18T05:35:24.256Z,7.70
2023-06-18T05:38:14.690Z,6.50
2023-06-18T05:41:00.834Z,6.90
2023-06-18T05:43:49.897Z,6.90
2023-06-18T05:46:36.446Z,7.40
2023-06-18T05:49:23.203Z,7.40
2023-06-18T05:52:10.399Z,7.40
2023-06-18T05:54:58.023Z,7.40
2023-06-18T05:57:45.392Z,7.30
2023-06-18T06:00:33.211Z,7.00
2023-06-18T06:03:19.918Z,8.20
2023-06-18T06:06:06.593Z,7.10
2023-06-18T06:08:53.139Z,7.30
2023-06-18T06:11:42.095Z,7.10
2023-06-18T06:14:30.794Z,7.50
2023-06-18T06:17:19.914Z,7.00
2023-06-18T06:20:09.950Z,6.60
2023-06-18T06:22:57.766Z,7.30
2023-06-18T06:25:46.219Z,7.00
2023-06-18T06:28:32.789Z,7.30
2023-06-18T06:31:19.397Z,7.90
2023-06-18T06:34:07.077Z,7.40
2023-06-18T06:36:54.387Z,8.50
2023-06-18T06:39:43.250Z,8.10
2023-06-18T06:42:30.158Z,8.00
2023-06-18T06:45:35.457Z,8.20
2023-06-18T06:48:40.818Z,8.50
2023-06-18T06:51:47.881Z,9.00
2023-06-18T06:54:35.412Z,8.30
2023-06-18T06:57:22.297Z,8.50
2023-06-18T07:00:11.268Z,8.10
2023-06-18T07:02:57.913Z,7.70
2023-06-18T07:05:45.159Z,9.40
2023-06-18T07:08:33.188Z,8.90
2023-06-18T07:11:22.278Z,9.60
2023-06-18T07:14:09.289Z,7.40
2023-06-18T07:16:55.930Z,8.30
2023-06-18T07:19:42.505Z,7.80
2023-06-18T07:22:31.755Z,7.80
2023-06-18T07:25:19.183Z,7.90
2023-06-18T07:28:07.753Z,10.40
2023-06-18T07:30:56.857Z,9.50
2023-06-18T07:33:44.665Z,9.60
2023-06-18T07:36:31.166Z,10.00
2023-06-18T07:39:18.682Z,9.90
2023-06-18T07:42:06.927Z,8.40
2023-06-18T07:44:53.714Z,7.80
2023-06-18T07:47:41.836Z,10.30
2023-06-18T07:50:28.476Z,9.40
2023-06-18T07:53:14.939Z,8.50
2023-06-18T07:56:01.378Z,8.90
2023-06-18T07:58:48.371Z,8.20
2023-06-18T08:01:37.187Z,8.90
2023-06-18T08:04:24.413Z,9.10
2023-06-18T08:07:11.372Z,8.00
2023-06-18T08:09:57.837Z,9.50
2023-06-18T08:12:47.157Z,8.30
2023-06-18T08:15:34.684Z,7.60
2023-06-18T08:18:21.202Z,9.10
2023-06-18T08:21:08.159Z,8.30
2023-06-18T08:23:55.961Z,8.30
2023-06-18T08:26:42.343Z,7.30
2023-06-18T08:29:28.927Z,8.90
2023-06-18T08:32:15.240Z,7.80
2023-06-18T08:35:02.379Z,7.60
2023-06-18T08:37:49.097Z,9.30
2023-06-18T08:40:47.027Z,9.80
2023-06-18T08:43:37.745Z,9.00
2023-06-18T08:46:26.989Z,8.70
2023-06-18T08:49:16.657Z,7.70
2023-06-18T08:52:09.608Z,7.70
2023-06-18T08:55:00.646Z,8.60
2023-06-18T08:58:05.958Z,7.80
2023-06-18T09:00:54.522Z,8.90
2023-06-18T09:03:42.843Z,8.80
2023-06-18T09:06:30.194Z,7.80
2023-06-18T09:09:20.601Z,7.60
2023-06-18T09:12:07.629Z,10.60
2023-06-18T09:14:54.109Z,8.40
2023-06-18T09:17:48.870Z,7.80
2023-06-18T09:20:35.861Z,9.10
2023-06-18T09:23:22.355Z,7.50
2023-06-18T09:26:13.133Z,9.20
2023-06-18T09:29:03.761Z,8.20
2023-06-18T09:31:50.365Z,8.30
2023-06-18T09:34:38.690Z,9.30
2023-06-18T09:37:26.864Z,8.30
2023-06-18T09:40:21.765Z,9.30
2023-06-18T09:43:11.001Z,8.90
2023-06-18T09:45:57.515Z,11.20
2023-06-18T09:48:47.521Z,7.90
2023-06-18T09:51:41.285Z,11.20
2023-06-18T09:54:42.026Z,8.50
2023-06-18T09:57:48.889Z,8.90
2023-06-18T10:00:35.613Z,8.40
2023-06-18T10:03:26.618Z,8.90
2023-06-18T10:06:23.554Z,8.50
2023-06-18T10:09:11.393Z,8.40
2023-06-18T10:12:00.690Z,8.30
2023-06-18T10:14:56.743Z,8.40
2023-06-18T10:17:50.976Z,11.10
2023-06-18T10:20:38.394Z,9.70
2023-06-18T10:23:27.681Z,9.00
2023-06-18T10:26:14.295Z,8.80
2023-06-18T10:29:02.325Z,9.60
2023-06-18T10:31:51.045Z,9.50
2023-06-18T10:34:40.039Z,9.00
2023-06-18T10:37:28.832Z,9.30
2023-06-18T10:40:15.368Z,10.00
2023-06-18T10:43:07.142Z,10.70
2023-06-18T10:46:12.802Z,10.90
2023-06-18T10:49:20.631Z,9.20
2023-06-18T10:52:14.771Z,10.60
2023-06-18T10:55:21.795Z,9.90
2023-06-18T10:58:08.515Z,8.20
2023-06-18T11:00:54.754Z,8.30
2023-06-18T11:03:41.237Z,8.60
2023-06-18T11:06:31.764Z,8.40
2023-06-18T11:09:18.565Z,9.40
2023-06-18T11:12:18.061Z,8.50
2023-06-18T11:15:08.055Z,8.80
2023-06-18T11:17:56.139Z,8.30
2023-06-18T11:20:46.981Z,8.80
2023-06-18T11:23:33.965Z,9.70
2023-06-18T11:26:20.729Z,9.20
2023-06-18T11:29:08.254Z,10.10
2023-06-18T11:31:56.142Z,7.90
2023-06-18T11:34:45.470Z,8.30
2023-06-18T11:37:43.688Z,8.90
2023-06-18T11:40:30.154Z,7.90
2023-06-18T11:43:17.127Z,8.60
2023-06-18T11:46:03.714Z,7.70
2023-06-18T11:48:50.055Z,8.30
2023-06-18T11:51:39.944Z,9.80
2023-06-18T11:54:27.031Z,8.80
2023-06-18T11:57:15.579Z,9.10
2023-06-18T12:00:11.450Z,9.20
2023-06-18T12:03:03.103Z,10.30
2023-06-18T12:05:51.325Z,11.20
2023-06-18T12:08:44.671Z,13.00
2023-06-18T12:12:15.534Z,11.80
2023-06-18T12:15:23.099Z,11.00
2023-06-18T12:18:33.534Z,9.90
2023-06-18T12:21:20.444Z,10.70
2023-06-18T12:24:07.469Z,11.10
2023-06-18T12:26:54.215Z,12.20
2023-06-18T12:29:42.967Z,10.50
2023-06-18T12:32:29.775Z,9.80
2023-06-18T12:35:23.501Z,11.20
2023-06-18T12:38:11.269Z,10.40
2023-06-18T12:40:59.496Z,9.60
2023-06-18T12:43:46.350Z,10.10
2023-06-18T12:46:36.645Z,11.90
2023-06-18T12:49:23.459Z,10.20
2023-06-18T12:52:17.778Z,10.70
2023-06-18T12:55:09.483Z,12.00
2023-06-18T12:57:56.074Z,10.60
2023-06-18T13:00:47.768Z,12.20
2023-06-18T13:03:35.146Z,9.90
2023-06-18T13:06:21.799Z,8.90
2023-06-18T13:09:08.807Z,11.00
2023-06-18T13:11:55.874Z,10.10
2023-06-18T13:14:46.412Z,9.10
2023-06-18T13:17:32.940Z,10.20
2023-06-18T13:20:19.800Z,9.40
2023-06-18T13:23:11.263Z,9.70
2023-06-18T13:26:00.543Z,10.10
2023-06-18T13:28:47.909Z,10.20
2023-06-18T13:31:34.559Z,9.50
2023-06-18T13:34:22.142Z,8.70
2023-06-18T13:37:08.173Z,10.00
2023-06-18T13:39:54.389Z,9.50
2023-06-18T13:42:42.212Z,10.20
2023-06-18T13:45:29.223Z,10.90
2023-06-18T13:48:16.705Z,9.10
2023-06-18T13:51:03.592Z,9.30
2023-06-18T13:53:49.874Z,8.70
2023-06-18T13:56:36.435Z,10.00
2023-06-18T13:59:24.274Z,9.70
2023-06-18T14:02:10.702Z,9.90
2023-06-18T14:04:56.969Z,10.00
2023-06-18T14:07:44.299Z,9.20
2023-06-18T14:10:34.623Z,9.40
2023-06-18T14:13:21.593Z,10.00
2023-06-18T14:16:11.062Z,10.90
2023-06-18T14:18:59.252Z,11.30
2023-06-18T14:21:45.662Z,9.80
2023-06-18T14:24:32.390Z,8.10
2023-06-18T14:27:19.012Z,9.90
2023-06-18T14:30:07.354Z,9.00
2023-06-18T14:32:54.075Z,9.80
2023-06-18T14:35:40.424Z,9.00
2023-06-18T14:38:27.035Z,9.70
2023-06-18T14:41:14.280Z,8.70
2023-06-18T14:44:01.045Z,8.90
2023-06-18T14:46:50.529Z,9.20
2023-06-18T14:49:39.896Z,8.70
2023-06-18T14:52:26.192Z,10.00
2023-06-18T14:55:14.960Z,10.50
2023-06-18T14:58:01.224Z,8.60
2023-06-18T15:00:49.193Z,8.60
2023-06-18T15:03:36.717Z,8.90
2023-06-18T15:06:23.091Z,11.20
2023-06-18T15:09:09.313Z,8.40
2023-06-18T15:11:55.563Z,10.00
2023-06-18T15:14:42.956Z,9.00
2023-06-18T15:17:31.913Z,10.00
2023-06-18T15:20:36.154Z,10.00
2023-06-18T15:23:22.674Z,9.60
2023-06-18T15:26:14.982Z,9.80
2023-06-18T15:29:01.428Z,9.40
2023-06-18T15:31:48.090Z,8.80
2023-06-18T15:34:34.420Z,10.20
2023-06-18T15:37:20.868Z,9.30
2023-06-18T15:40:07.951Z,10.30
2023-06-18T15:42:54.546Z,8.90
2023-06-18T15:45:41.995Z,11.50
2023-06-18T15:48:28.540Z,7.80
2023-06-18T15:51:15.410Z,10.40
2023-06-18T15:54:01.720Z,9.90
2023-06-18T15:56:47.842Z,9.10
2023-06-18T15:59:34.242Z,8.80
2023-06-18T16:02:20.913Z,9.80
2023-06-18T16:05:22.304Z,9.30
2023-06-18T16:08:09.707Z,9.00
2023-06-18T16:10:56.167Z,8.90
2023-06-18T16:13:42.533Z,9.70
2023-06-18T16:16:29.671Z,10.10
2023-06-18T16:19:17.154Z,8.80
2023-06-18T16:22:03.967Z,9.90
2023-06-18T16:24:50.034Z,9.80
2023-06-18T16:27:38.328Z,10.10
2023-06-18T16:30:26.358Z,8.40
2023-06-18T16:33:15.438Z,10.00
2023-06-18T16:36:02.003Z,9.90
2023-06-18T16:38:48.373Z,9.60
2023-06-18T16:41:34.896Z,10.10
2023-06-18T16:44:21.931Z,9.10
2023-06-18T16:47:08.433Z,8.90
2023-06-18T16:49:57.018Z,9.30
2023-06-18T16:52:43.378Z,9.80
2023-06-18T16:55:30.513Z,9.30
2023-06-18T16:58:16.783Z,9.00
2023-06-18T17:01:03.737Z,9.00
2023-06-18T17:03:51.156Z,9.50
2023-06-18T17:06:38.407Z,8.90
2023-06-18T17:09:27.631Z,8.60
2023-06-18T17:12:14.104Z,8.40
2023-06-18T17:15:00.961Z,9.00
2023-06-18T17:17:50.363Z,8.90
2023-06-18T17:20:37.545Z,8.40
2023-06-18T17:23:23.899Z,9.00
2023-06-18T17:26:10.889Z,9.20
2023-06-18T17:29:00.895Z,10.00
2023-06-18T17:31:46.847Z,9.80
2023-06-18T17:34:33.551Z,10.20
2023-06-18T17:37:22.860Z,10.00
2023-06-18T17:40:10.245Z,10.70
2023-06-18T17:42:56.780Z,10.20
2023-06-18T17:45:44.850Z,10.20
2023-06-18T17:48:31.876Z,11.10
2023-06-18T17:51:20.657Z,9.20
2023-06-18T17:54:07.248Z,9.30
2023-06-18T17:56:54.824Z,9.30
2023-06-18T17:59:40.987Z,10.90
2023-06-18T18:02:27.251Z,9.30
2023-06-18T18:05:14.084Z,9.10
2023-06-18T18:08:00.667Z,10.30
2023-06-18T18:10:48.788Z,9.50
2023-06-18T18:13:37.663Z,9.50
2023-06-18T18:16:24.652Z,9.80
2023-06-18T18:19:11.629Z,12.00
2023-06-18T18:21:58.090Z,10.50
2023-06-18T18:24:47.038Z,10.80
2023-06-18T18:27:34.532Z,12.30
2023-06-18T18:30:22.086Z,11.40
2023-06-18T18:33:11.133Z,10.80
2023-06-18T18:35:57.763Z,12.00
2023-06-18T18:38:44.409Z,11.20
2023-06-18T18:41:31.178Z,11.00
2023-06-18T18:44:17.432Z,12.20
2023-06-18T18:47:05.253Z,11.20
2023-06-18T18:49:52.857Z,9.40
2023-06-18T18:52:39.653Z,11.40
2023-06-18T18:55:26.503Z,11.00
2023-06-18T18:58:15.117Z,11.90
2023-06-18T19:01:02.436Z,10.70
2023-06-18T19:03:49.650Z,10.60
2023-06-18T19:06:39.028Z,12.90
2023-06-18T19:09:26.326Z,11.90
2023-06-18T19:12:13.032Z,10.80
2023-06-18T19:15:01.988Z,11.10
2023-06-18T19:17:49.871Z,12.40
2023-06-18T19:20:36.838Z,12.10
2023-06-18T19:23:26.615Z,10.50
2023-06-18T19:26:14.720Z,12.50
2023-06-18T19:29:03.180Z,13.20
2023-06-18T19:31:54.304Z,11.30
2023-06-18T19:34:41.000Z,13.40
2023-06-18T19:37:33.060Z,11.40
2023-06-18T19:40:22.994Z,12.00
2023-06-18T19:43:14.212Z,14.30
2023-06-18T19:46:05.349Z,14.60
2023-06-18T19:48:53.529Z,15.60
2023-06-18T19:51:43.011Z,12.80
2023-06-18T19:54:29.697Z,13.20
2023-06-18T19:57:21.966Z,13.80
2023-06-18T20:00:09.347Z,12.40
2023-06-18T20:03:05.856Z,14.10
2023-06-18T20:05:54.675Z,14.40
2023-06-18T20:08:42.930Z,15.00
2023-06-18T20:11:32.049Z,11.90
2023-06-18T20:14:18.878Z,12.80
2023-06-18T20:17:08.792Z,12.30
2023-06-18T20:19:55.676Z,14.90
2023-06-18T20:22:42.905Z,14.50
2023-06-18T20:25:29.782Z,15.90
2023-06-18T20:28:19.281Z,14.90
2023-06-18T20:31:06.594Z,12.80
2023-06-18T20:33:56.213Z,13.60
2023-06-18T20:36:42.842Z,13.30
2023-06-18T20:39:29.383Z,14.70
2023-06-18T20:42:15.472Z,11.60
2023-06-18T20:45:03.973Z,11.40
2023-06-18T20:47:51.631Z,12.90
2023-06-18T20:50:39.371Z,10.10
2023-06-18T20:53:29.115Z,11.40
2023-06-18T20:56:16.390Z,10.90
2023-06-18T20:59:06.166Z,11.20
2023-06-18T21:01:54.676Z,10.50
2023-06-18T21:04:41.573Z,13.40
2023-06-18T21:07:28.630Z,11.50
2023-06-18T21:10:14.631Z,12.20
2023-06-18T21:13:01.936Z,12.50
2023-06-18T21:15:48.603Z,12.30
2023-06-18T21:18:35.253Z,11.40
2023-06-18T21:21:21.604Z,10.90
2023-06-18T21:24:08.479Z,12.60
2023-06-18T21:26:55.003Z,11.10
2023-06-18T21:29:41.417Z,13.40
2023-06-18T21:32:28.126Z,12.70
2023-06-18T21:35:14.462Z,10.70
2023-06-18T21:38:00.956Z,12.40
2023-06-18T21:40:47.271Z,12.60
2023-06-18T21:43:33.518Z,13.30
2023-06-18T21:46:20.003Z,11.90
2023-06-18T21:49:06.289Z,11.20
2023-06-18T21:51:53.716Z,10.80
2023-06-18T21:54:39.913Z,10.50
2023-06-18T21:57:26.728Z,12.00
2023-06-18T22:00:15.003Z,11.90
2023-06-18T22:03:01.901Z,12.30
2023-06-18T22:05:48.602Z,12.30
2023-06-18T22:08:49.693Z,13.40
2023-06-18T22:11:36.622Z,12.20
2023-06-18T22:14:23.128Z,11.70
2023-06-18T22:17:13.253Z,10.70
2023-06-18T22:19:59.678Z,12.40
2023-06-18T22:22:50.865Z,13.60
2023-06-18T22:25:37.028Z,13.60
2023-06-18T22:28:25.730Z,11.60
2023-06-18T22:31:14.490Z,12.10
2023-06-18T22:34:05.214Z,12.00
2023-06-18T22:36:53.800Z,12.60
2023-06-18T22:39:40.239Z,12.10
2023-06-18T22:42:26.305Z,13.60
2023-06-18T22:45:12.597Z,12.30
2023-06-18T22:47:59.812Z,12.00
2023-06-18T22:50:49.172Z,12.30
2023-06-18T22:53:35.239Z,6.70
2023-06-18T22:56:28.477Z,12.80
2023-06-18T22:59:15.249Z,12.80
2023-06-18T23:02:01.274Z,14.30
2023-06-18T23:04:50.207Z,11.60
2023-06-18T23:07:36.811Z,12.80
2023-06-18T23:10:26.982Z,12.20
2023-06-18T23:13:13.769Z,12.00
2023-06-18T23:16:00.017Z,13.20
2023-06-18T23:18:46.810Z,12.10
2023-06-18T23:21:46.927Z,11.10
2023-06-18T23:24:35.302Z,12.50
2023-06-18T23:27:21.729Z,13.00
2023-06-18T23:30:09.473Z,13.00
2023-06-18T23:33:01.359Z,12.90
2023-06-18T23:35:51.964Z,13.50
2023-06-18T23:38:39.591Z,13.00
2023-06-18T23:41:26.081Z,9.50
2023-06-18T23:44:13.185Z,7.30
2023-06-18T23:46:59.298Z,13.30
2023-06-18T23:49:47.255Z,11.50
2023-06-18T23:52:33.586Z,12.30
2023-06-18T23:55:20.689Z,11.60
2023-06-18T23:58:13.608Z,14.80
